sensor_id;sensor_type;location;lat;lon;timestamp;P1;durP1;ratioP1;P2;durP2;ratioP2
80481;SDS011;69797;43.864;21.410;2023-08-20T00:01:42;8.30;;;5.45;;
80481;SDS011;69797;43.864;21.410;2023-08-20T00:04:09;9.00;;;6.20;;
80481;SDS011;69797;43.864;21.410;2023-08-20T00:06:42;9.13;;;6.53;;
80481;SDS011;69797;43.864;21.410;2023-08-20T00:09:12;12.20;;;6.43;;
80481;SDS011;69797;43.864;21.410;2023-08-20T00:11:39;9.73;;;6.17;;
80481;SDS011;69797;43.864;21.410;2023-08-20T00:14:06;11.95;;;5.90;;
80481;SDS011;69797;43.864;21.410;2023-08-20T00:16:33;9.60;;;6.63;;
80481;SDS011;69797;43.864;21.410;2023-08-20T00:19:00;10.63;;;6.53;;
80481;SDS011;69797;43.864;21.410;2023-08-20T00:21:27;7.82;;;6.03;;
80481;SDS011;69797;43.864;21.410;2023-08-20T00:23:54;9.10;;;6.50;;
80481;SDS011;69797;43.864;21.410;2023-08-20T00:26:21;8.43;;;5.72;;
80481;SDS011;69797;43.864;21.410;2023-08-20T00:28:48;11.05;;;6.57;;
80481;SDS011;69797;43.864;21.410;2023-08-20T00:31:15;8.07;;;5.90;;
80481;SDS011;69797;43.864;21.410;2023-08-20T00:33:42;9.32;;;5.85;;
80481;SDS011;69797;43.864;21.410;2023-08-20T00:36:29;9.93;;;5.83;;
80481;SDS011;69797;43.864;21.410;2023-08-20T00:38:56;8.73;;;6.78;;
80481;SDS011;69797;43.864;21.410;2023-08-20T00:41:23;8.80;;;6.00;;
80481;SDS011;69797;43.864;21.410;2023-08-20T00:43:52;11.80;;;7.30;;
80481;SDS011;69797;43.864;21.410;2023-08-20T00:46:19;8.75;;;6.45;;
80481;SDS011;69797;43.864;21.410;2023-08-20T00:48:46;8.73;;;6.30;;
80481;SDS011;69797;43.864;21.410;2023-08-20T00:51:13;8.65;;;5.75;;
80481;SDS011;69797;43.864;21.410;2023-08-20T00:53:40;8.75;;;6.45;;
80481;SDS011;69797;43.864;21.410;2023-08-20T00:56:06;9.93;;;5.70;;
80481;SDS011;69797;43.864;21.410;2023-08-20T00:58:33;9.50;;;5.90;;
80481;SDS011;69797;43.864;21.410;2023-08-20T01:01:00;10.33;;;5.50;;
80481;SDS011;69797;43.864;21.410;2023-08-20T01:03:27;8.80;;;5.85;;
80481;SDS011;69797;43.864;21.410;2023-08-20T01:05:58;9.43;;;5.43;;
80481;SDS011;69797;43.864;21.410;2023-08-20T01:08:47;8.18;;;5.72;;
80481;SDS011;69797;43.864;21.410;2023-08-20T01:11:29;8.20;;;5.82;;
80481;SDS011;69797;43.864;21.410;2023-08-20T01:14:00;14.03;;;6.20;;
80481;SDS011;69797;43.864;21.410;2023-08-20T01:16:27;7.22;;;5.30;;
80481;SDS011;69797;43.864;21.410;2023-08-20T01:18:54;9.75;;;5.47;;
80481;SDS011;69797;43.864;21.410;2023-08-20T01:21:28;10.00;;;6.18;;
80481;SDS011;69797;43.864;21.410;2023-08-20T01:24:17;11.65;;;5.80;;
80481;SDS011;69797;43.864;21.410;2023-08-20T01:29:35;10.82;;;8.27;;
80481;SDS011;69797;43.864;21.410;2023-08-20T01:32:02;12.52;;;7.60;;
80481;SDS011;69797;43.864;21.410;2023-08-20T01:34:31;12.90;;;7.93;;
80481;SDS011;69797;43.864;21.410;2023-08-20T01:36:58;9.38;;;5.45;;
80481;SDS011;69797;43.864;21.410;2023-08-20T01:39:25;11.80;;;7.13;;
80481;SDS011;69797;43.864;21.410;2023-08-20T01:41:51;13.77;;;8.27;;
80481;SDS011;69797;43.864;21.410;2023-08-20T01:44:20;15.48;;;9.55;;
80481;SDS011;69797;43.864;21.410;2023-08-20T01:46:47;13.82;;;8.80;;
80481;SDS011;69797;43.864;21.410;2023-08-20T01:49:14;10.93;;;7.35;;
80481;SDS011;69797;43.864;21.410;2023-08-20T01:51:41;14.77;;;8.67;;
80481;SDS011;69797;43.864;21.410;2023-08-20T01:54:07;15.30;;;7.93;;
80481;SDS011;69797;43.864;21.410;2023-08-20T01:56:34;12.75;;;8.38;;
80481;SDS011;69797;43.864;21.410;2023-08-20T01:59:01;16.02;;;8.02;;
80481;SDS011;69797;43.864;21.410;2023-08-20T02:01:28;11.85;;;7.95;;
80481;SDS011;69797;43.864;21.410;2023-08-20T02:03:55;10.70;;;7.90;;
80481;SDS011;69797;43.864;21.410;2023-08-20T02:06:21;14.15;;;8.02;;
80481;SDS011;69797;43.864;21.410;2023-08-20T02:08:48;11.00;;;7.65;;
80481;SDS011;69797;43.864;21.410;2023-08-20T02:11:15;10.90;;;6.15;;
80481;SDS011;69797;43.864;21.410;2023-08-20T02:13:42;10.95;;;7.20;;
80481;SDS011;69797;43.864;21.410;2023-08-20T02:16:09;10.20;;;7.43;;
80481;SDS011;69797;43.864;21.410;2023-08-20T02:18:36;12.25;;;7.35;;
80481;SDS011;69797;43.864;21.410;2023-08-20T02:21:03;9.90;;;6.68;;
80481;SDS011;69797;43.864;21.410;2023-08-20T02:23:30;10.15;;;6.65;;
80481;SDS011;69797;43.864;21.410;2023-08-20T02:25:57;11.32;;;7.13;;
80481;SDS011;69797;43.864;21.410;2023-08-20T02:28:24;11.30;;;6.47;;
80481;SDS011;69797;43.864;21.410;2023-08-20T02:30:51;9.73;;;6.53;;
80481;SDS011;69797;43.864;21.410;2023-08-20T02:33:17;10.52;;;7.10;;
80481;SDS011;69797;43.864;21.410;2023-08-20T02:35:44;11.10;;;6.43;;
80481;SDS011;69797;43.864;21.410;2023-08-20T02:38:11;10.40;;;6.68;;
80481;SDS011;69797;43.864;21.410;2023-08-20T02:40:41;9.07;;;6.80;;
80481;SDS011;69797;43.864;21.410;2023-08-20T02:43:10;9.82;;;6.45;;
80481;SDS011;69797;43.864;21.410;2023-08-20T02:45:41;10.80;;;7.10;;
80481;SDS011;69797;43.864;21.410;2023-08-20T02:48:09;10.80;;;7.10;;
80481;SDS011;69797;43.864;21.410;2023-08-20T02:50:36;12.20;;;6.45;;
80481;SDS011;69797;43.864;21.410;2023-08-20T02:53:03;13.43;;;6.77;;
80481;SDS011;69797;43.864;21.410;2023-08-20T02:55:31;11.52;;;7.97;;
80481;SDS011;69797;43.864;21.410;2023-08-20T02:58:01;11.13;;;6.65;;
80481;SDS011;69797;43.864;21.410;2023-08-20T03:00:34;11.75;;;7.13;;
80481;SDS011;69797;43.864;21.410;2023-08-20T03:03:04;10.98;;;7.03;;
80481;SDS011;69797;43.864;21.410;2023-08-20T03:05:34;13.37;;;7.20;;
80481;SDS011;69797;43.864;21.410;2023-08-20T03:08:01;10.32;;;7.32;;
80481;SDS011;69797;43.864;21.410;2023-08-20T03:10:30;12.68;;;7.03;;
80481;SDS011;69797;43.864;21.410;2023-08-20T03:13:01;11.98;;;7.13;;
80481;SDS011;69797;43.864;21.410;2023-08-20T03:15:28;10.38;;;7.28;;
80481;SDS011;69797;43.864;21.410;2023-08-20T03:17:56;11.43;;;7.53;;
80481;SDS011;69797;43.864;21.410;2023-08-20T03:20:23;10.93;;;7.32;;
80481;SDS011;69797;43.864;21.410;2023-08-20T03:22:50;9.85;;;6.70;;
80481;SDS011;69797;43.864;21.410;2023-08-20T03:25:16;9.07;;;6.75;;
80481;SDS011;69797;43.864;21.410;2023-08-20T03:27:43;9.88;;;6.63;;
80481;SDS011;69797;43.864;21.410;2023-08-20T03:30:12;8.60;;;6.93;;
80481;SDS011;69797;43.864;21.410;2023-08-20T03:32:39;11.52;;;6.70;;
80481;SDS011;69797;43.864;21.410;2023-08-20T03:35:05;11.90;;;7.05;;
80481;SDS011;69797;43.864;21.410;2023-08-20T03:37:32;11.68;;;7.65;;
80481;SDS011;69797;43.864;21.410;2023-08-20T03:40:00;15.85;;;8.55;;
80481;SDS011;69797;43.864;21.410;2023-08-20T03:42:29;10.53;;;7.63;;
80481;SDS011;69797;43.864;21.410;2023-08-20T03:44:56;13.27;;;8.10;;
80481;SDS011;69797;43.864;21.410;2023-08-20T03:47:23;13.43;;;7.70;;
80481;SDS011;69797;43.864;21.410;2023-08-20T03:49:50;12.10;;;7.95;;
80481;SDS011;69797;43.864;21.410;2023-08-20T03:52:17;13.20;;;7.63;;
80481;SDS011;69797;43.864;21.410;2023-08-20T03:54:44;12.43;;;8.30;;
80481;SDS011;69797;43.864;21.410;2023-08-20T03:57:10;17.30;;;7.72;;
80481;SDS011;69797;43.864;21.410;2023-08-20T03:59:37;16.83;;;8.10;;
80481;SDS011;69797;43.864;21.410;2023-08-20T04:02:04;16.00;;;7.05;;
80481;SDS011;69797;43.864;21.410;2023-08-20T04:04:30;13.13;;;6.68;;
80481;SDS011;69797;43.864;21.410;2023-08-20T04:06:58;14.40;;;6.43;;
80481;SDS011;69797;43.864;21.410;2023-08-20T04:09:25;23.02;;;6.65;;
80481;SDS011;69797;43.864;21.410;2023-08-20T04:11:51;13.18;;;6.93;;
80481;SDS011;69797;43.864;21.410;2023-08-20T04:14:18;21.23;;;6.50;;
80481;SDS011;69797;43.864;21.410;2023-08-20T04:16:47;13.32;;;7.18;;
80481;SDS011;69797;43.864;21.410;2023-08-20T04:19:14;16.03;;;7.73;;
80481;SDS011;69797;43.864;21.410;2023-08-20T04:21:41;10.50;;;6.78;;
80481;SDS011;69797;43.864;21.410;2023-08-20T04:24:08;11.10;;;7.40;;
80481;SDS011;69797;43.864;21.410;2023-08-20T04:26:37;10.50;;;7.22;;
80481;SDS011;69797;43.864;21.410;2023-08-20T04:29:04;10.48;;;6.93;;
80481;SDS011;69797;43.864;21.410;2023-08-20T04:31:30;7.90;;;6.20;;
80481;SDS011;69797;43.864;21.410;2023-08-20T04:33:57;10.15;;;6.22;;
80481;SDS011;69797;43.864;21.410;2023-08-20T04:36:24;10.10;;;6.30;;
80481;SDS011;69797;43.864;21.410;2023-08-20T04:38:51;9.20;;;6.72;;
80481;SDS011;69797;43.864;21.410;2023-08-20T04:41:18;12.02;;;6.78;;
80481;SDS011;69797;43.864;21.410;2023-08-20T04:43:44;10.43;;;6.93;;
80481;SDS011;69797;43.864;21.410;2023-08-20T04:46:11;11.43;;;6.63;;
80481;SDS011;69797;43.864;21.410;2023-08-20T04:48:38;8.43;;;5.32;;
80481;SDS011;69797;43.864;21.410;2023-08-20T04:51:07;9.07;;;6.22;;
80481;SDS011;69797;43.864;21.410;2023-08-20T04:53:34;10.23;;;5.90;;
80481;SDS011;69797;43.864;21.410;2023-08-20T04:56:01;8.87;;;6.17;;
80481;SDS011;69797;43.864;21.410;2023-08-20T04:58:28;7.75;;;6.07;;
80481;SDS011;69797;43.864;21.410;2023-08-20T05:00:55;8.00;;;6.10;;
80481;SDS011;69797;43.864;21.410;2023-08-20T05:03:22;10.27;;;7.22;;
80481;SDS011;69797;43.864;21.410;2023-08-20T05:05:49;10.32;;;6.20;;
80481;SDS011;69797;43.864;21.410;2023-08-20T05:08:16;9.00;;;6.00;;
80481;SDS011;69797;43.864;21.410;2023-08-20T05:10:43;10.85;;;6.25;;
80481;SDS011;69797;43.864;21.410;2023-08-20T05:13:12;7.55;;;6.63;;
80481;SDS011;69797;43.864;21.410;2023-08-20T05:15:39;9.68;;;7.57;;
80481;SDS011;69797;43.864;21.410;2023-08-20T05:18:06;11.15;;;5.90;;
80481;SDS011;69797;43.864;21.410;2023-08-20T05:20:33;12.27;;;7.10;;
80481;SDS011;69797;43.864;21.410;2023-08-20T05:23:00;9.40;;;5.47;;
80481;SDS011;69797;43.864;21.410;2023-08-20T05:25:27;9.10;;;6.30;;
80481;SDS011;69797;43.864;21.410;2023-08-20T05:27:53;8.35;;;6.10;;
80481;SDS011;69797;43.864;21.410;2023-08-20T05:30:20;12.27;;;6.22;;
80481;SDS011;69797;43.864;21.410;2023-08-20T05:32:47;9.10;;;6.17;;
80481;SDS011;69797;43.864;21.410;2023-08-20T05:35:14;11.25;;;6.18;;
80481;SDS011;69797;43.864;21.410;2023-08-20T05:37:41;8.15;;;5.78;;
80481;SDS011;69797;43.864;21.410;2023-08-20T05:40:07;6.80;;;5.60;;
80481;SDS011;69797;43.864;21.410;2023-08-20T05:42:35;9.63;;;7.00;;
80481;SDS011;69797;43.864;21.410;2023-08-20T05:45:02;8.87;;;5.93;;
80481;SDS011;69797;43.864;21.410;2023-08-20T05:47:29;10.13;;;6.07;;
80481;SDS011;69797;43.864;21.410;2023-08-20T05:50:01;11.60;;;6.93;;
80481;SDS011;69797;43.864;21.410;2023-08-20T05:52:27;8.55;;;5.57;;
80481;SDS011;69797;43.864;21.410;2023-08-20T05:54:54;8.63;;;6.43;;
80481;SDS011;69797;43.864;21.410;2023-08-20T05:57:21;6.93;;;5.57;;
80481;SDS011;69797;43.864;21.410;2023-08-20T05:59:48;6.85;;;6.15;;
80481;SDS011;69797;43.864;21.410;2023-08-20T06:02:18;6.85;;;6.22;;
80481;SDS011;69797;43.864;21.410;2023-08-20T06:04:45;7.22;;;6.22;;
80481;SDS011;69797;43.864;21.410;2023-08-20T06:07:12;7.03;;;6.18;;
80481;SDS011;69797;43.864;21.410;2023-08-20T06:09:38;10.33;;;6.30;;
80481;SDS011;69797;43.864;21.410;2023-08-20T06:12:05;7.10;;;5.75;;
80481;SDS011;69797;43.864;21.410;2023-08-20T06:14:32;6.82;;;6.13;;
80481;SDS011;69797;43.864;21.410;2023-08-20T06:16:59;9.32;;;6.10;;
80481;SDS011;69797;43.864;21.410;2023-08-20T06:19:26;8.65;;;6.15;;
80481;SDS011;69797;43.864;21.410;2023-08-20T06:21:53;8.43;;;7.23;;
80481;SDS011;69797;43.864;21.410;2023-08-20T06:24:27;7.97;;;6.07;;
80481;SDS011;69797;43.864;21.410;2023-08-20T06:26:54;11.45;;;7.00;;
80481;SDS011;69797;43.864;21.410;2023-08-20T06:29:21;9.98;;;7.78;;
80481;SDS011;69797;43.864;21.410;2023-08-20T06:31:50;7.38;;;6.75;;
80481;SDS011;69797;43.864;21.410;2023-08-20T06:34:17;8.07;;;7.07;;
80481;SDS011;69797;43.864;21.410;2023-08-20T06:36:44;8.10;;;7.30;;
80481;SDS011;69797;43.864;21.410;2023-08-20T06:39:11;8.50;;;7.68;;
80481;SDS011;69797;43.864;21.410;2023-08-20T06:41:37;7.63;;;6.80;;
80481;SDS011;69797;43.864;21.410;2023-08-20T06:44:04;7.40;;;6.70;;
80481;SDS011;69797;43.864;21.410;2023-08-20T06:46:31;10.77;;;8.17;;
80481;SDS011;69797;43.864;21.410;2023-08-20T06:48:58;7.88;;;7.15;;
80481;SDS011;69797;43.864;21.410;2023-08-20T06:51:24;9.95;;;7.28;;
80481;SDS011;69797;43.864;21.410;2023-08-20T06:53:51;8.35;;;7.20;;
80481;SDS011;69797;43.864;21.410;2023-08-20T06:56:18;9.13;;;7.90;;
80481;SDS011;69797;43.864;21.410;2023-08-20T06:58:45;8.70;;;7.87;;
80481;SDS011;69797;43.864;21.410;2023-08-20T07:01:12;9.98;;;7.05;;
80481;SDS011;69797;43.864;21.410;2023-08-20T07:03:40;8.70;;;7.80;;
80481;SDS011;69797;43.864;21.410;2023-08-20T07:06:07;11.05;;;8.60;;
80481;SDS011;69797;43.864;21.410;2023-08-20T07:08:38;11.07;;;8.95;;
80481;SDS011;69797;43.864;21.410;2023-08-20T07:11:06;11.13;;;8.20;;
80481;SDS011;69797;43.864;21.410;2023-08-20T07:13:33;9.57;;;8.57;;
80481;SDS011;69797;43.864;21.410;2023-08-20T07:16:00;8.73;;;7.93;;
80481;SDS011;69797;43.864;21.410;2023-08-20T07:18:27;10.65;;;9.00;;
80481;SDS011;69797;43.864;21.410;2023-08-20T07:20:55;9.65;;;7.32;;
80481;SDS011;69797;43.864;21.410;2023-08-20T07:23:22;7.27;;;6.57;;
80481;SDS011;69797;43.864;21.410;2023-08-20T07:25:49;7.68;;;6.55;;
80481;SDS011;69797;43.864;21.410;2023-08-20T07:28:18;10.63;;;8.25;;
80481;SDS011;69797;43.864;21.410;2023-08-20T07:31:05;9.85;;;8.85;;
80481;SDS011;69797;43.864;21.410;2023-08-20T07:33:32;11.65;;;8.63;;
80481;SDS011;69797;43.864;21.410;2023-08-20T07:35:59;10.97;;;8.57;;
80481;SDS011;69797;43.864;21.410;2023-08-20T07:38:26;10.73;;;7.85;;
80481;SDS011;69797;43.864;21.410;2023-08-20T07:40:52;10.30;;;9.23;;
80481;SDS011;69797;43.864;21.410;2023-08-20T07:43:19;9.68;;;8.75;;
80481;SDS011;69797;43.864;21.410;2023-08-20T07:45:46;10.07;;;9.07;;
80481;SDS011;69797;43.864;21.410;2023-08-20T07:48:13;8.90;;;8.03;;
80481;SDS011;69797;43.864;21.410;2023-08-20T07:50:40;9.52;;;8.63;;
80481;SDS011;69797;43.864;21.410;2023-08-20T07:53:08;9.40;;;8.40;;
80481;SDS011;69797;43.864;21.410;2023-08-20T07:55:40;11.40;;;8.90;;
80481;SDS011;69797;43.864;21.410;2023-08-20T07:58:07;9.07;;;8.32;;
80481;SDS011;69797;43.864;21.410;2023-08-20T08:00:34;9.60;;;8.70;;
80481;SDS011;69797;43.864;21.410;2023-08-20T08:03:01;9.45;;;8.55;;
80481;SDS011;69797;43.864;21.410;2023-08-20T08:05:28;9.90;;;9.00;;
80481;SDS011;69797;43.864;21.410;2023-08-20T08:07:55;9.85;;;9.00;;
80481;SDS011;69797;43.864;21.410;2023-08-20T08:10:22;10.02;;;8.93;;
80481;SDS011;69797;43.864;21.410;2023-08-20T08:12:49;9.97;;;8.97;;
80481;SDS011;69797;43.864;21.410;2023-08-20T08:15:16;10.77;;;9.68;;
80481;SDS011;69797;43.864;21.410;2023-08-20T08:17:44;11.88;;;10.77;;
80481;SDS011;69797;43.864;21.410;2023-08-20T08:20:11;10.35;;;9.45;;
80481;SDS011;69797;43.864;21.410;2023-08-20T08:22:38;10.60;;;9.63;;
80481;SDS011;69797;43.864;21.410;2023-08-20T08:25:06;10.87;;;9.87;;
80481;SDS011;69797;43.864;21.410;2023-08-20T08:27:33;11.00;;;10.00;;
80481;SDS011;69797;43.864;21.410;2023-08-20T08:30:12;13.80;;;10.40;;
80481;SDS011;69797;43.864;21.410;2023-08-20T08:32:39;11.88;;;10.73;;
80481;SDS011;69797;43.864;21.410;2023-08-20T08:35:06;10.90;;;10.10;;
80481;SDS011;69797;43.864;21.410;2023-08-20T08:37:33;11.37;;;10.57;;
80481;SDS011;69797;43.864;21.410;2023-08-20T08:40:01;10.95;;;10.13;;
80481;SDS011;69797;43.864;21.410;2023-08-20T08:42:29;11.52;;;10.55;;
80481;SDS011;69797;43.864;21.410;2023-08-20T08:44:57;10.65;;;9.65;;
80481;SDS011;69797;43.864;21.410;2023-08-20T08:47:25;10.35;;;9.55;;
80481;SDS011;69797;43.864;21.410;2023-08-20T08:49:54;9.63;;;8.77;;
80481;SDS011;69797;43.864;21.410;2023-08-20T08:52:25;10.48;;;9.40;;
80481;SDS011;69797;43.864;21.410;2023-08-20T08:54:52;10.45;;;9.55;;
80481;SDS011;69797;43.864;21.410;2023-08-20T08:57:19;9.82;;;8.88;;
80481;SDS011;69797;43.864;21.410;2023-08-20T08:59:46;10.38;;;9.57;;
80481;SDS011;69797;43.864;21.410;2023-08-20T09:02:13;10.40;;;9.50;;
80481;SDS011;69797;43.864;21.410;2023-08-20T09:04:44;11.52;;;9.50;;
80481;SDS011;69797;43.864;21.410;2023-08-20T09:07:12;10.48;;;9.05;;
80481;SDS011;69797;43.864;21.410;2023-08-20T09:09:46;10.02;;;8.85;;
80481;SDS011;69797;43.864;21.410;2023-08-20T09:12:17;10.23;;;9.43;;
80481;SDS011;69797;43.864;21.410;2023-08-20T09:14:46;7.70;;;7.00;;
80481;SDS011;69797;43.864;21.410;2023-08-20T09:17:14;8.30;;;7.45;;
80481;SDS011;69797;43.864;21.410;2023-08-20T09:19:43;6.78;;;5.82;;
80481;SDS011;69797;43.864;21.410;2023-08-20T09:22:11;7.38;;;6.40;;
80481;SDS011;69797;43.864;21.410;2023-08-20T09:27:11;9.37;;;6.93;;
80481;SDS011;69797;43.864;21.410;2023-08-20T09:29:45;11.00;;;6.78;;
80481;SDS011;69797;43.864;21.410;2023-08-20T09:32:16;9.10;;;6.53;;
80481;SDS011;69797;43.864;21.410;2023-08-20T09:34:51;9.50;;;6.22;;
80481;SDS011;69797;43.864;21.410;2023-08-20T09:37:20;7.38;;;5.95;;
80481;SDS011;69797;43.864;21.410;2023-08-20T09:39:48;7.60;;;6.80;;
80481;SDS011;69797;43.864;21.410;2023-08-20T09:42:16;7.78;;;6.97;;
80481;SDS011;69797;43.864;21.410;2023-08-20T09:44:45;7.70;;;6.88;;
80481;SDS011;69797;43.864;21.410;2023-08-20T09:47:17;8.18;;;6.38;;
80481;SDS011;69797;43.864;21.410;2023-08-20T09:49:46;9.02;;;6.90;;
80481;SDS011;69797;43.864;21.410;2023-08-20T09:52:35;7.97;;;6.57;;
80481;SDS011;69797;43.864;21.410;2023-08-20T09:55:17;9.18;;;6.57;;
80481;SDS011;69797;43.864;21.410;2023-08-20T09:57:48;9.90;;;6.97;;
80481;SDS011;69797;43.864;21.410;2023-08-20T10:00:16;10.70;;;6.53;;
80481;SDS011;69797;43.864;21.410;2023-08-20T10:02:43;9.80;;;6.82;;
80481;SDS011;69797;43.864;21.410;2023-08-20T10:05:11;15.03;;;7.93;;
80481;SDS011;69797;43.864;21.410;2023-08-20T10:07:39;13.50;;;8.43;;
80481;SDS011;69797;43.864;21.410;2023-08-20T10:10:07;11.32;;;8.20;;
80481;SDS011;69797;43.864;21.410;2023-08-20T10:12:34;11.65;;;7.20;;
80481;SDS011;69797;43.864;21.410;2023-08-20T10:15:03;9.02;;;6.93;;
80481;SDS011;69797;43.864;21.410;2023-08-20T10:17:31;9.83;;;7.40;;
80481;SDS011;69797;43.864;21.410;2023-08-20T10:20:03;10.20;;;6.68;;
80481;SDS011;69797;43.864;21.410;2023-08-20T10:22:52;9.23;;;6.93;;
80481;SDS011;69797;43.864;21.410;2023-08-20T10:25:26;6.85;;;6.13;;
80481;SDS011;69797;43.864;21.410;2023-08-20T10:27:54;7.80;;;6.55;;
80481;SDS011;69797;43.864;21.410;2023-08-20T10:30:25;7.80;;;5.90;;
80481;SDS011;69797;43.864;21.410;2023-08-20T10:32:53;7.55;;;6.47;;
80481;SDS011;69797;43.864;21.410;2023-08-20T10:35:27;10.52;;;6.32;;
80481;SDS011;69797;43.864;21.410;2023-08-20T10:38:14;12.13;;;6.90;;
80481;SDS011;69797;43.864;21.410;2023-08-20T10:40:52;8.00;;;6.63;;
80481;SDS011;69797;43.864;21.410;2023-08-20T10:43:30;11.00;;;6.63;;
80481;SDS011;69797;43.864;21.410;2023-08-20T10:46:17;10.05;;;6.65;;
80481;SDS011;69797;43.864;21.410;2023-08-20T10:51:20;10.48;;;7.10;;
80481;SDS011;69797;43.864;21.410;2023-08-20T10:56:40;9.40;;;6.53;;
80481;SDS011;69797;43.864;21.410;2023-08-20T10:59:08;9.38;;;6.57;;
80481;SDS011;69797;43.864;21.410;2023-08-20T11:01:43;9.18;;;6.28;;
80481;SDS011;69797;43.864;21.410;2023-08-20T11:04:15;8.45;;;6.50;;
80481;SDS011;69797;43.864;21.410;2023-08-20T11:06:43;10.73;;;7.60;;
80481;SDS011;69797;43.864;21.410;2023-08-20T11:09:11;10.07;;;6.90;;
80481;SDS011;69797;43.864;21.410;2023-08-20T11:11:38;8.25;;;6.15;;
80481;SDS011;69797;43.864;21.410;2023-08-20T11:14:12;6.45;;;5.70;;
80481;SDS011;69797;43.864;21.410;2023-08-20T11:16:43;7.53;;;5.82;;
80481;SDS011;69797;43.864;21.410;2023-08-20T11:19:11;8.27;;;6.30;;
80481;SDS011;69797;43.864;21.410;2023-08-20T11:21:41;7.60;;;6.27;;
80481;SDS011;69797;43.864;21.410;2023-08-20T11:24:09;11.45;;;5.88;;
80481;SDS011;69797;43.864;21.410;2023-08-20T11:26:40;10.00;;;6.22;;
80481;SDS011;69797;43.864;21.410;2023-08-20T11:29:09;7.53;;;6.40;;
80481;SDS011;69797;43.864;21.410;2023-08-20T11:31:39;7.25;;;5.75;;
80481;SDS011;69797;43.864;21.410;2023-08-20T11:34:06;8.57;;;6.07;;
80481;SDS011;69797;43.864;21.410;2023-08-20T11:36:34;10.82;;;6.40;;
80481;SDS011;69797;43.864;21.410;2023-08-20T11:39:01;8.88;;;5.70;;
80481;SDS011;69797;43.864;21.410;2023-08-20T11:41:29;8.05;;;6.15;;
80481;SDS011;69797;43.864;21.410;2023-08-20T11:43:56;7.63;;;5.80;;
80481;SDS011;69797;43.864;21.410;2023-08-20T11:46:23;6.57;;;5.97;;
80481;SDS011;69797;43.864;21.410;2023-08-20T11:51:44;8.85;;;6.15;;
80481;SDS011;69797;43.864;21.410;2023-08-20T11:54:14;6.68;;;6.03;;
80481;SDS011;69797;43.864;21.410;2023-08-20T11:56:51;8.52;;;6.35;;
80481;SDS011;69797;43.864;21.410;2023-08-20T11:59:19;6.60;;;5.67;;
80481;SDS011;69797;43.864;21.410;2023-08-20T12:02:00;7.75;;;6.07;;
80481;SDS011;69797;43.864;21.410;2023-08-20T12:04:31;9.07;;;6.40;;
80481;SDS011;69797;43.864;21.410;2023-08-20T12:07:05;7.88;;;6.80;;
80481;SDS011;69797;43.864;21.410;2023-08-20T12:09:39;8.07;;;6.18;;
80481;SDS011;69797;43.864;21.410;2023-08-20T12:12:08;10.13;;;5.77;;
80481;SDS011;69797;43.864;21.410;2023-08-20T12:14:35;9.75;;;5.90;;
80481;SDS011;69797;43.864;21.410;2023-08-20T12:17:03;8.00;;;6.40;;
80481;SDS011;69797;43.864;21.410;2023-08-20T12:19:30;7.20;;;5.43;;
80481;SDS011;69797;43.864;21.410;2023-08-20T12:21:57;8.77;;;6.45;;
80481;SDS011;69797;43.864;21.410;2023-08-20T12:24:23;9.77;;;6.20;;
80481;SDS011;69797;43.864;21.410;2023-08-20T12:26:52;8.20;;;6.13;;
80481;SDS011;69797;43.864;21.410;2023-08-20T12:29:19;8.05;;;6.25;;
80481;SDS011;69797;43.864;21.410;2023-08-20T12:31:46;9.90;;;6.03;;
80481;SDS011;69797;43.864;21.410;2023-08-20T12:34:13;9.27;;;5.65;;
80481;SDS011;69797;43.864;21.410;2023-08-20T12:36:41;11.37;;;6.23;;
80481;SDS011;69797;43.864;21.410;2023-08-20T12:39:08;7.68;;;6.20;;
80481;SDS011;69797;43.864;21.410;2023-08-20T12:41:35;9.48;;;6.30;;
80481;SDS011;69797;43.864;21.410;2023-08-20T12:44:05;7.38;;;5.57;;
80481;SDS011;69797;43.864;21.410;2023-08-20T12:46:50;7.05;;;5.93;;
80481;SDS011;69797;43.864;21.410;2023-08-20T12:49:17;7.43;;;5.83;;
80481;SDS011;69797;43.864;21.410;2023-08-20T12:51:44;7.32;;;5.60;;
80481;SDS011;69797;43.864;21.410;2023-08-20T12:54:11;7.10;;;6.15;;
80481;SDS011;69797;43.864;21.410;2023-08-20T12:56:37;9.15;;;6.57;;
80481;SDS011;69797;43.864;21.410;2023-08-20T12:59:04;10.68;;;6.18;;
80481;SDS011;69797;43.864;21.410;2023-08-20T13:01:31;7.57;;;5.37;;
80481;SDS011;69797;43.864;21.410;2023-08-20T13:03:58;7.20;;;5.80;;
80481;SDS011;69797;43.864;21.410;2023-08-20T13:06:25;8.43;;;5.25;;
80481;SDS011;69797;43.864;21.410;2023-08-20T13:08:52;8.70;;;5.80;;
80481;SDS011;69797;43.864;21.410;2023-08-20T13:11:19;10.15;;;6.10;;
80481;SDS011;69797;43.864;21.410;2023-08-20T13:13:48;8.00;;;5.90;;
80481;SDS011;69797;43.864;21.410;2023-08-20T13:16:15;7.75;;;5.50;;
80481;SDS011;69797;43.864;21.410;2023-08-20T13:18:45;7.25;;;6.00;;
80481;SDS011;69797;43.864;21.410;2023-08-20T13:21:12;10.65;;;5.50;;
80481;SDS011;69797;43.864;21.410;2023-08-20T13:23:38;10.07;;;6.35;;
80481;SDS011;69797;43.864;21.410;2023-08-20T13:26:07;10.47;;;6.40;;
80481;SDS011;69797;43.864;21.410;2023-08-20T13:28:36;6.60;;;5.75;;
80481;SDS011;69797;43.864;21.410;2023-08-20T13:31:14;9.73;;;5.25;;
80481;SDS011;69797;43.864;21.410;2023-08-20T13:33:41;7.72;;;5.78;;
80481;SDS011;69797;43.864;21.410;2023-08-20T13:36:08;7.35;;;6.28;;
80481;SDS011;69797;43.864;21.410;2023-08-20T13:38:36;6.57;;;5.87;;
80481;SDS011;69797;43.864;21.410;2023-08-20T13:41:03;7.35;;;6.35;;
80481;SDS011;69797;43.864;21.410;2023-08-20T13:43:30;9.75;;;5.53;;
80481;SDS011;69797;43.864;21.410;2023-08-20T13:45:56;8.48;;;5.25;;
80481;SDS011;69797;43.864;21.410;2023-08-20T13:48:23;8.48;;;5.40;;
80481;SDS011;69797;43.864;21.410;2023-08-20T13:50:50;11.07;;;5.83;;
80481;SDS011;69797;43.864;21.410;2023-08-20T13:53:17;8.50;;;5.18;;
80481;SDS011;69797;43.864;21.410;2023-08-20T13:55:44;7.65;;;5.47;;
80481;SDS011;69797;43.864;21.410;2023-08-20T13:58:12;7.45;;;5.60;;
80481;SDS011;69797;43.864;21.410;2023-08-20T14:00:39;8.18;;;5.57;;
80481;SDS011;69797;43.864;21.410;2023-08-20T14:03:06;6.80;;;5.43;;
80481;SDS011;69797;43.864;21.410;2023-08-20T14:05:34;6.75;;;5.72;;
80481;SDS011;69797;43.864;21.410;2023-08-20T14:08:03;7.43;;;5.55;;
80481;SDS011;69797;43.864;21.410;2023-08-20T14:10:30;5.47;;;4.82;;
80481;SDS011;69797;43.864;21.410;2023-08-20T14:12:57;7.80;;;5.15;;
80481;SDS011;69797;43.864;21.410;2023-08-20T14:15:23;6.23;;;5.57;;
80481;SDS011;69797;43.864;21.410;2023-08-20T14:17:53;7.85;;;5.32;;
80481;SDS011;69797;43.864;21.410;2023-08-20T14:20:20;7.72;;;5.32;;
80481;SDS011;69797;43.864;21.410;2023-08-20T14:22:47;7.22;;;5.70;;
80481;SDS011;69797;43.864;21.410;2023-08-20T14:25:14;9.05;;;4.80;;
80481;SDS011;69797;43.864;21.410;2023-08-20T14:27:40;7.73;;;5.00;;
80481;SDS011;69797;43.864;21.410;2023-08-20T14:30:07;6.65;;;5.20;;
80481;SDS011;69797;43.864;21.410;2023-08-20T14:32:37;7.68;;;5.75;;
80481;SDS011;69797;43.864;21.410;2023-08-20T14:35:06;6.30;;;5.35;;
80481;SDS011;69797;43.864;21.410;2023-08-20T14:37:34;6.82;;;5.00;;
80481;SDS011;69797;43.864;21.410;2023-08-20T14:40:01;6.90;;;4.83;;
80481;SDS011;69797;43.864;21.410;2023-08-20T14:42:32;6.90;;;4.60;;
80481;SDS011;69797;43.864;21.410;2023-08-20T14:45:02;7.78;;;5.13;;
80481;SDS011;69797;43.864;21.410;2023-08-20T14:47:30;7.80;;;4.70;;
80481;SDS011;69797;43.864;21.410;2023-08-20T14:49:58;6.90;;;4.80;;